Atlantic City International Airport Atlantic City US
ICAO: KACY
IATA: ACY
Category: Medium
Scheduled Services: Yes

Elevation: 75 ft
TransAlt. 18000 ft.

Airport Communications:
APP/DEP:38.55
APP/DEP:124.6
ATIS:108.6
CLNC DEL:127.85
GND:121.9
ANG OPS:138.12
MILLVILLE RDO:122.55
TWR:120.3

KACY Zoom In..

Runways:

(A) RW 04 length 6144 ft width 150 ft
---- / hdg 38

(B) RW 13 length 10000 ft width 150 ft
ILS 109.10 / hdg 128

(C) RW 22 length 6144 ft width 150 ft
---- / hdg 218

(D) RW 31 length 10000 ft width 150 ft
ILS 109.10 / hdg 308

Location; KACY
Day. 23 / Time. 15.17 Zulu
* Altimeter: 29.70
* Temperature: 13° c. 55.4°f.
* Wind from: 200° Speed 20 kn with Gusts up to 33 kn.
Dewpoint: 12° c.
Visibility: 1 m.
Clouds: Broken 600 ft.
Clouds: Broken 1100 ft.
Clouds: Overcast 1500 ft.
Conditions: Light Rain.Conditions: Mist.

KACY 231517Z 20020G33KT 1 1/2SM -RA BR BKN006 BKN011 OVC015 13/12 A2970 RMK AO2 PK WND 20033/1516 TWR VIS 2 1/2 P0020 T01280122


Wind From 200°
Speed 20 kn.

YouTube Music Video
 
jpsmedia.com for Web Design  worldairports.se 2018   terms of use